createdAt,value
2018-07-27T00:02:27.026Z,5.27
2018-07-27T00:04:55.201Z,5.47
2018-07-27T00:07:23.177Z,6.20
2018-07-27T00:09:51.424Z,6.30
2018-07-27T00:12:19.629Z,6.90
2018-07-27T00:14:47.792Z,5.47
2018-07-27T00:17:15.977Z,6.80
2018-07-27T00:19:44.133Z,9.07
2018-07-27T00:22:12.312Z,5.57
2018-07-27T00:24:40.445Z,6.03
2018-07-27T00:27:08.626Z,6.07
2018-07-27T00:29:36.865Z,8.47
2018-07-27T00:32:05.034Z,6.10
2018-07-27T00:34:33.214Z,6.27
2018-07-27T00:37:01.414Z,5.40
2018-07-27T00:39:29.593Z,8.27
2018-07-27T00:41:57.750Z,6.20
2018-07-27T00:44:25.965Z,5.27
2018-07-27T00:46:54.146Z,8.07
2018-07-27T00:49:22.318Z,7.60
2018-07-27T00:51:50.501Z,5.83
2018-07-27T00:54:18.666Z,6.27
2018-07-27T00:56:46.880Z,6.60
2018-07-27T00:59:15.021Z,5.80
2018-07-27T01:01:43.197Z,5.53
2018-07-27T01:04:11.388Z,6.63
2018-07-27T01:06:39.707Z,6.40
2018-07-27T01:09:09.185Z,5.73
2018-07-27T01:11:37.342Z,7.43
2018-07-27T01:14:05.637Z,6.87
2018-07-27T01:16:33.807Z,6.97
2018-07-27T01:19:01.727Z,7.53
2018-07-27T01:21:29.916Z,6.50
2018-07-27T01:23:58.094Z,7.27
2018-07-27T01:26:26.249Z,7.10
2018-07-27T01:28:54.445Z,6.70
2018-07-27T01:31:22.646Z,7.13
2018-07-27T01:33:50.833Z,6.10
2018-07-27T01:36:19.038Z,6.33
2018-07-27T01:38:47.309Z,6.70
2018-07-27T01:41:15.606Z,6.17
2018-07-27T01:43:43.902Z,6.47
2018-07-27T01:46:12.226Z,6.80
2018-07-27T01:48:40.514Z,6.17
2018-07-27T01:51:08.834Z,6.10
2018-07-27T01:53:37.148Z,5.83
2018-07-27T01:56:05.478Z,7.43
2018-07-27T01:58:33.743Z,6.50
2018-07-27T02:01:02.040Z,6.60
2018-07-27T02:03:30.394Z,6.30
2018-07-27T02:05:58.764Z,6.27
2018-07-27T02:08:26.998Z,5.87
2018-07-27T02:10:55.330Z,6.27
2018-07-27T02:13:23.766Z,6.07
2018-07-27T02:15:52.154Z,6.77
2018-07-27T02:18:20.472Z,7.47
2018-07-27T02:20:48.747Z,6.73
2018-07-27T02:23:17.080Z,6.67
2018-07-27T02:25:45.449Z,7.07
2018-07-27T02:28:13.823Z,7.00
2018-07-27T02:30:42.174Z,7.00
2018-07-27T02:33:10.496Z,6.30
2018-07-27T02:35:38.877Z,6.27
2018-07-27T02:38:07.242Z,6.37
2018-07-27T02:40:35.474Z,6.90
2018-07-27T02:43:03.722Z,6.63
2018-07-27T02:45:31.992Z,6.53
2018-07-27T02:48:00.283Z,7.40
2018-07-27T02:50:28.573Z,7.23
2018-07-27T02:52:56.851Z,7.67
2018-07-27T02:55:25.122Z,7.80
2018-07-27T02:57:53.398Z,7.43
2018-07-27T03:00:21.670Z,7.40
2018-07-27T03:02:49.995Z,7.47
2018-07-27T03:05:18.035Z,7.30
2018-07-27T03:07:46.383Z,7.70
2018-07-27T03:10:14.766Z,7.33
2018-07-27T03:12:43.082Z,7.90
2018-07-27T03:15:11.333Z,7.10
2018-07-27T03:17:39.647Z,7.30
2018-07-27T03:20:07.906Z,7.77
2018-07-27T03:22:36.197Z,7.27
2018-07-27T03:25:04.642Z,7.20
2018-07-27T03:27:32.930Z,7.17
2018-07-27T03:30:01.195Z,6.93
2018-07-27T03:32:29.536Z,6.63
2018-07-27T03:34:57.798Z,6.80
2018-07-27T03:37:26.104Z,6.43
2018-07-27T03:39:54.395Z,6.30
2018-07-27T03:42:22.695Z,6.50
2018-07-27T03:44:51.077Z,7.30
2018-07-27T03:47:19.429Z,7.43
2018-07-27T03:49:47.722Z,7.30
2018-07-27T03:52:16.038Z,7.43
2018-07-27T03:54:44.051Z,7.80
2018-07-27T03:57:12.441Z,7.67
2018-07-27T03:59:40.718Z,7.13
2018-07-27T04:02:09.035Z,7.57
2018-07-27T04:04:37.268Z,7.50
2018-07-27T04:07:05.565Z,6.97
2018-07-27T04:09:33.871Z,7.10
2018-07-27T04:12:02.192Z,7.10
2018-07-27T04:14:30.519Z,6.10
2018-07-27T04:16:58.742Z,7.03
2018-07-27T04:19:26.971Z,6.27
2018-07-27T04:21:55.001Z,7.03
2018-07-27T04:24:23.281Z,7.00
2018-07-27T04:26:51.581Z,7.33
2018-07-27T04:29:19.910Z,7.00
2018-07-27T04:31:48.219Z,6.63
2018-07-27T04:34:16.490Z,6.57
2018-07-27T04:36:44.763Z,6.60
2018-07-27T04:39:13.074Z,6.63
2018-07-27T04:41:41.426Z,7.20
2018-07-27T04:44:09.831Z,7.03
2018-07-27T04:46:38.186Z,6.37
2018-07-27T04:49:06.530Z,9.00
2018-07-27T04:51:34.768Z,7.63
2018-07-27T04:54:02.745Z,7.03
2018-07-27T04:56:31.342Z,7.77
2018-07-27T04:58:59.624Z,8.53
2018-07-27T05:01:27.957Z,8.27
2018-07-27T05:03:56.250Z,7.97
2018-07-27T05:06:24.846Z,7.97
2018-07-27T05:08:58.638Z,8.53
2018-07-27T05:11:26.958Z,8.30
2018-07-27T05:13:55.244Z,8.50
2018-07-27T05:16:23.624Z,8.77
2018-07-27T05:18:51.925Z,8.90
2018-07-27T05:21:20.238Z,8.53
2018-07-27T05:23:48.559Z,7.50
2018-07-27T05:26:16.852Z,8.50
2018-07-27T05:28:45.132Z,9.17
2018-07-27T05:31:13.498Z,8.57
2018-07-27T05:33:41.826Z,8.37
2018-07-27T05:36:10.095Z,8.80
2018-07-27T05:38:38.145Z,7.80
2018-07-27T05:41:06.485Z,7.90
2018-07-27T05:43:34.877Z,7.80
2018-07-27T05:46:03.201Z,7.57
2018-07-27T05:48:31.255Z,8.17
2018-07-27T05:50:59.485Z,7.80
2018-07-27T05:53:27.854Z,8.20
2018-07-27T05:55:56.223Z,7.83
2018-07-27T05:58:24.614Z,7.73
2018-07-27T06:00:53.012Z,6.97
2018-07-27T06:03:21.328Z,7.70
2018-07-27T06:05:49.853Z,7.63
2018-07-27T06:08:18.243Z,7.10
2018-07-27T06:10:46.624Z,7.27
2018-07-27T06:13:14.954Z,8.03
2018-07-27T06:15:42.993Z,7.20
2018-07-27T06:18:11.522Z,6.67
2018-07-27T06:20:39.848Z,7.10
2018-07-27T06:23:08.261Z,7.27
2018-07-27T06:25:36.645Z,7.17
2018-07-27T06:28:05.069Z,7.13
2018-07-27T06:30:33.426Z,7.00
2018-07-27T06:33:01.715Z,6.83
2018-07-27T06:35:30.126Z,7.33
2018-07-27T06:37:58.489Z,7.50
2018-07-27T06:40:26.763Z,7.43
2018-07-27T06:42:55.035Z,7.40
2018-07-27T06:45:23.355Z,7.37
2018-07-27T06:47:51.642Z,7.20
2018-07-27T06:50:20.010Z,7.73
2018-07-27T06:52:48.352Z,7.33
2018-07-27T06:55:16.665Z,6.93
2018-07-27T06:57:44.940Z,6.67
2018-07-27T07:00:13.216Z,6.20
2018-07-27T07:02:41.532Z,7.17
2018-07-27T07:05:09.821Z,6.73
2018-07-27T07:07:38.086Z,6.40
2018-07-27T07:10:06.399Z,6.50
2018-07-27T07:12:34.731Z,6.53
2018-07-27T07:15:03.053Z,6.50
2018-07-27T07:17:31.302Z,6.80
2018-07-27T07:19:59.545Z,6.63
2018-07-27T07:22:27.806Z,6.67
2018-07-27T07:24:56.095Z,6.40
2018-07-27T07:27:24.366Z,6.10
2018-07-27T07:29:52.682Z,6.40
2018-07-27T07:32:21.030Z,6.73
2018-07-27T07:34:49.098Z,8.90
2018-07-27T07:37:17.166Z,6.53
2018-07-27T07:39:45.533Z,6.70
2018-07-27T07:42:13.817Z,6.80
2018-07-27T07:44:42.086Z,6.10
2018-07-27T07:47:10.367Z,6.70
2018-07-27T07:49:38.650Z,6.43
2018-07-27T07:52:06.993Z,7.47
2018-07-27T07:54:35.299Z,6.70
2018-07-27T07:57:03.542Z,5.87
2018-07-27T07:59:31.828Z,7.67
2018-07-27T08:02:00.182Z,6.10
2018-07-27T08:04:28.449Z,6.63
2018-07-27T08:06:56.683Z,6.03
2018-07-27T08:09:24.933Z,6.20
2018-07-27T08:11:53.167Z,6.50
2018-07-27T08:14:21.428Z,8.00
2018-07-27T08:16:49.454Z,6.07
2018-07-27T08:19:17.764Z,8.53
2018-07-27T08:21:46.121Z,6.40
2018-07-27T08:24:14.494Z,6.63
2018-07-27T08:26:44.630Z,5.83
2018-07-27T08:29:14.029Z,5.37
2018-07-27T08:31:43.485Z,5.50
2018-07-27T08:34:12.469Z,6.20
2018-07-27T08:36:40.545Z,6.27
2018-07-27T08:39:11.181Z,6.67
2018-07-27T08:41:40.019Z,5.73
2018-07-27T08:44:09.503Z,5.47
2018-07-27T08:46:38.389Z,5.63
2018-07-27T08:49:06.894Z,4.77
2018-07-27T08:51:35.274Z,5.67
2018-07-27T08:54:03.539Z,5.37
2018-07-27T08:56:31.882Z,5.83
2018-07-27T08:59:00.206Z,5.50
2018-07-27T09:01:28.537Z,5.43
2018-07-27T09:03:56.858Z,5.37
2018-07-27T09:06:25.188Z,5.20
2018-07-27T09:08:53.600Z,5.50
2018-07-27T09:11:22.404Z,5.73
2018-07-27T09:13:51.142Z,5.63
2018-07-27T09:16:19.904Z,5.40
2018-07-27T09:18:48.416Z,6.00
2018-07-27T09:21:16.740Z,6.20
2018-07-27T09:23:45.040Z,5.17
2018-07-27T09:26:13.367Z,5.13
2018-07-27T09:28:41.670Z,5.40
2018-07-27T09:31:10.031Z,5.83
2018-07-27T09:33:38.444Z,5.50
2018-07-27T09:36:06.783Z,5.90
2018-07-27T09:38:35.087Z,5.70
2018-07-27T09:41:03.472Z,5.63
2018-07-27T09:43:31.871Z,5.50
2018-07-27T09:46:00.226Z,5.60
2018-07-27T09:48:28.725Z,6.40
2018-07-27T09:50:57.094Z,6.47
2018-07-27T09:53:25.408Z,5.47
2018-07-27T09:55:53.681Z,6.27
2018-07-27T09:58:21.947Z,6.33
2018-07-27T10:00:55.244Z,6.20
2018-07-27T10:03:23.509Z,6.27
2018-07-27T10:05:51.855Z,6.00
2018-07-27T10:08:20.167Z,6.07
2018-07-27T10:10:48.514Z,5.90
2018-07-27T10:13:16.901Z,5.93
2018-07-27T10:15:45.222Z,6.03
2018-07-27T10:18:13.602Z,6.40
2018-07-27T10:20:41.972Z,6.33
2018-07-27T10:23:10.247Z,6.13
2018-07-27T10:25:38.562Z,5.77
2018-07-27T10:28:06.872Z,5.90
2018-07-27T10:30:35.169Z,5.80
2018-07-27T10:33:03.287Z,5.50
2018-07-27T10:35:31.528Z,6.40
2018-07-27T10:37:59.787Z,5.50
2018-07-27T10:40:28.111Z,5.87
2018-07-27T10:42:56.398Z,5.80
2018-07-27T10:45:24.654Z,5.73
2018-07-27T10:47:52.999Z,6.50
2018-07-27T10:50:21.404Z,6.03
2018-07-27T10:52:49.334Z,5.43
2018-07-27T10:55:17.724Z,5.80
2018-07-27T10:57:45.781Z,5.40
2018-07-27T11:00:15.397Z,5.77
2018-07-27T11:02:43.741Z,6.10
2018-07-27T11:05:12.825Z,5.73
2018-07-27T11:07:41.256Z,5.47
2018-07-27T11:10:10.337Z,5.97
2018-07-27T11:12:38.683Z,5.70
2018-07-27T11:15:08.146Z,5.40
2018-07-27T11:17:36.433Z,5.33
2018-07-27T11:20:04.961Z,5.37
2018-07-27T11:22:33.289Z,5.50
2018-07-27T11:25:01.703Z,6.00
2018-07-27T11:27:30.048Z,5.50
2018-07-27T11:29:58.500Z,5.60
2018-07-27T11:32:26.865Z,5.63
2018-07-27T11:34:55.138Z,5.63
2018-07-27T11:37:23.557Z,5.60
2018-07-27T11:39:51.801Z,6.73
2018-07-27T11:42:20.089Z,5.23
2018-07-27T11:44:48.327Z,5.83
2018-07-27T11:47:16.601Z,5.60
2018-07-27T11:49:44.817Z,5.73
2018-07-27T11:52:13.119Z,6.00
2018-07-27T11:54:41.367Z,5.70
2018-07-27T11:57:09.626Z,5.57
2018-07-27T11:59:37.906Z,5.50
2018-07-27T12:02:06.193Z,5.00
2018-07-27T12:04:34.447Z,5.03
2018-07-27T12:07:02.784Z,5.20
2018-07-27T12:09:31.021Z,6.80
2018-07-27T12:11:59.310Z,5.77
2018-07-27T12:14:27.978Z,5.77
2018-07-27T12:16:56.071Z,6.73
2018-07-27T12:19:24.078Z,6.90
2018-07-27T12:21:52.368Z,7.00
2018-07-27T12:24:20.643Z,6.50
2018-07-27T12:26:48.956Z,7.07
2018-07-27T12:29:17.229Z,5.50
2018-07-27T12:31:45.509Z,4.83
2018-07-27T12:34:13.883Z,5.77
2018-07-27T12:36:42.153Z,6.00
2018-07-27T12:39:12.723Z,5.43
2018-07-27T12:41:42.496Z,5.90
2018-07-27T12:44:11.331Z,5.20
2018-07-27T12:46:40.274Z,6.43
2018-07-27T12:49:09.158Z,5.50
2018-07-27T12:51:37.548Z,6.10
2018-07-27T12:54:05.905Z,5.10
2018-07-27T12:56:34.250Z,9.80
2018-07-27T12:59:02.616Z,5.13
2018-07-27T13:01:30.890Z,5.43
2018-07-27T13:03:59.178Z,5.33
2018-07-27T13:06:27.527Z,5.13
2018-07-27T13:08:55.840Z,8.60
2018-07-27T13:11:24.144Z,6.27
2018-07-27T13:13:52.456Z,6.50
2018-07-27T13:16:20.748Z,5.67
2018-07-27T13:18:48.885Z,5.90
2018-07-27T13:21:17.210Z,5.30
2018-07-27T13:23:54.361Z,5.43
2018-07-27T13:28:51.060Z,5.90
2018-07-27T13:31:24.053Z,5.63
2018-07-27T13:34:13.026Z,5.83
2018-07-27T13:36:41.343Z,5.83
2018-07-27T13:39:09.636Z,5.20
2018-07-27T13:41:37.916Z,5.60
2018-07-27T13:44:05.994Z,5.93
2018-07-27T13:46:34.243Z,5.20
2018-07-27T13:49:02.499Z,6.20
2018-07-27T13:51:30.826Z,5.60
2018-07-27T13:53:58.805Z,5.43
2018-07-27T13:56:27.046Z,5.13
2018-07-27T13:58:55.390Z,6.00
2018-07-27T14:01:23.741Z,5.37
2018-07-27T14:03:52.063Z,6.60
2018-07-27T14:06:20.384Z,5.90
2018-07-27T14:08:49.237Z,5.07
2018-07-27T14:11:17.538Z,5.50
2018-07-27T14:13:45.965Z,5.70
2018-07-27T14:16:14.290Z,5.80
2018-07-27T14:18:42.624Z,5.27
2018-07-27T14:21:10.994Z,5.07
2018-07-27T14:23:39.347Z,5.77
2018-07-27T14:26:07.710Z,5.57
2018-07-27T14:28:35.998Z,5.33
2018-07-27T14:31:04.252Z,5.60
2018-07-27T14:33:32.546Z,5.70
2018-07-27T14:36:00.501Z,5.57
2018-07-27T14:38:28.798Z,5.43
2018-07-27T14:40:56.807Z,5.00
2018-07-27T14:43:25.154Z,5.27
2018-07-27T14:45:53.181Z,5.70
2018-07-27T14:48:21.695Z,5.33
2018-07-27T14:50:49.778Z,6.47
2018-07-27T14:53:18.108Z,6.63
2018-07-27T14:55:46.531Z,5.90
2018-07-27T14:58:14.609Z,5.57
2018-07-27T15:00:42.946Z,6.33
2018-07-27T15:03:11.261Z,5.13
2018-07-27T15:05:39.510Z,5.30
2018-07-27T15:08:07.822Z,4.97
2018-07-27T15:10:36.188Z,5.60
2018-07-27T15:13:04.445Z,5.97
2018-07-27T15:15:32.828Z,4.87
2018-07-27T15:18:01.175Z,5.47
2018-07-27T15:20:29.488Z,5.27
2018-07-27T15:22:57.577Z,5.60
2018-07-27T15:25:25.840Z,5.40
2018-07-27T15:27:53.841Z,5.03
2018-07-27T15:30:22.143Z,5.23
2018-07-27T15:32:50.439Z,6.10
2018-07-27T15:35:18.666Z,9.60
2018-07-27T15:37:46.927Z,5.20
2018-07-27T15:40:15.275Z,5.50
2018-07-27T15:42:43.661Z,6.03
2018-07-27T15:45:11.996Z,5.50
2018-07-27T15:47:40.539Z,5.17
2018-07-27T15:50:08.959Z,5.50
2018-07-27T15:52:37.257Z,8.60
2018-07-27T15:55:05.876Z,5.43
2018-07-27T15:57:33.986Z,5.17
2018-07-27T16:00:02.342Z,5.80
2018-07-27T16:02:30.570Z,5.30
2018-07-27T16:04:58.882Z,4.97
2018-07-27T16:07:27.158Z,5.20
2018-07-27T16:09:55.206Z,5.37
2018-07-27T16:12:23.483Z,5.10
2018-07-27T16:14:51.868Z,5.27
2018-07-27T16:17:20.102Z,6.80
2018-07-27T16:19:48.468Z,4.93
2018-07-27T16:22:16.779Z,5.60
2018-07-27T16:24:45.187Z,5.10
2018-07-27T16:27:13.471Z,5.13
2018-07-27T16:29:41.461Z,5.57
2018-07-27T16:32:09.819Z,6.00
2018-07-27T16:34:38.134Z,5.13
2018-07-27T16:37:06.417Z,5.10
2018-07-27T16:39:34.735Z,9.03
2018-07-27T16:42:03.011Z,5.67
2018-07-27T16:44:31.327Z,5.47
2018-07-27T16:46:59.658Z,5.67
2018-07-27T16:49:27.979Z,5.70
2018-07-27T16:51:56.294Z,6.53
2018-07-27T16:54:24.588Z,5.47
2018-07-27T16:56:52.878Z,5.73
2018-07-27T16:59:21.269Z,6.07
2018-07-27T17:01:49.287Z,5.60
2018-07-27T17:04:17.766Z,5.77
2018-07-27T17:06:46.118Z,5.60
2018-07-27T17:09:14.486Z,5.47
2018-07-27T17:11:42.725Z,5.30
2018-07-27T17:14:11.012Z,5.70
2018-07-27T17:16:39.381Z,5.60
2018-07-27T17:19:07.708Z,5.77
2018-07-27T17:21:36.416Z,4.70
2018-07-27T17:24:04.771Z,4.70
2018-07-27T17:26:33.067Z,6.13
2018-07-27T17:29:01.395Z,5.70
2018-07-27T17:31:29.840Z,5.30
2018-07-27T17:33:58.182Z,5.17
2018-07-27T17:36:26.526Z,4.40
2018-07-27T17:38:54.805Z,5.10
2018-07-27T17:41:23.151Z,4.97
2018-07-27T17:43:51.432Z,4.67
2018-07-27T17:46:19.707Z,4.43
2018-07-27T17:48:47.978Z,5.57
2018-07-27T17:51:16.214Z,5.97
2018-07-27T17:53:44.517Z,4.33
2018-07-27T17:56:12.822Z,5.00
2018-07-27T17:58:41.077Z,4.77
2018-07-27T18:01:09.967Z,6.93
2018-07-27T18:03:38.247Z,5.00
2018-07-27T18:06:06.511Z,5.00
2018-07-27T18:08:34.806Z,4.83
2018-07-27T18:11:03.167Z,5.07
2018-07-27T18:13:31.507Z,5.30
2018-07-27T18:15:59.837Z,4.67
2018-07-27T18:18:28.141Z,5.17
2018-07-27T18:20:56.443Z,5.20
2018-07-27T18:23:24.706Z,5.33
2018-07-27T18:25:52.720Z,4.63
2018-07-27T18:28:21.039Z,6.07
2018-07-27T18:30:49.352Z,4.60
2018-07-27T18:33:17.630Z,4.97
2018-07-27T18:35:45.927Z,4.80
2018-07-27T18:38:14.165Z,5.10
2018-07-27T18:40:42.185Z,6.20
2018-07-27T18:43:10.501Z,5.70
2018-07-27T18:45:38.847Z,5.10
2018-07-27T18:48:07.148Z,6.60
2018-07-27T18:50:35.504Z,6.80
2018-07-27T18:53:03.846Z,7.10
2018-07-27T18:55:32.166Z,5.30
2018-07-27T18:58:00.422Z,5.90
2018-07-27T19:00:28.722Z,7.50
2018-07-27T19:02:56.986Z,8.00
2018-07-27T19:05:25.327Z,5.87
2018-07-27T19:07:53.603Z,7.00
2018-07-27T19:10:21.848Z,7.30
2018-07-27T19:12:50.087Z,9.00
2018-07-27T19:15:18.443Z,8.07
2018-07-27T19:17:46.769Z,8.13
2018-07-27T19:20:15.036Z,8.27
2018-07-27T19:22:43.378Z,7.03
2018-07-27T19:25:11.689Z,8.33
2018-07-27T19:27:39.958Z,7.13
2018-07-27T19:30:10.046Z,8.07
2018-07-27T19:32:38.274Z,7.70
2018-07-27T19:35:06.654Z,7.40
2018-07-27T19:37:35.026Z,7.13
2018-07-27T19:40:03.362Z,7.73
2018-07-27T19:42:31.845Z,8.33
2018-07-27T19:45:00.143Z,8.43
2018-07-27T19:47:28.476Z,6.40
2018-07-27T19:49:56.761Z,7.73
2018-07-27T19:52:25.026Z,7.80
2018-07-27T19:54:53.101Z,6.63
2018-07-27T19:57:21.384Z,7.17
2018-07-27T19:59:49.707Z,6.73
2018-07-27T20:02:18.004Z,7.47
2018-07-27T20:04:46.342Z,6.67
2018-07-27T20:07:14.670Z,6.87
2018-07-27T20:09:42.942Z,6.63
2018-07-27T20:12:11.239Z,7.90
2018-07-27T20:14:39.473Z,7.20
2018-07-27T20:17:07.793Z,8.43
2018-07-27T20:19:35.774Z,6.67
2018-07-27T20:22:04.144Z,6.03
2018-07-27T20:24:32.157Z,6.33
2018-07-27T20:27:00.488Z,6.67
2018-07-27T20:29:28.844Z,7.10
2018-07-27T20:31:57.191Z,6.67
2018-07-27T20:34:25.453Z,6.43
2018-07-27T20:36:53.742Z,6.43
2018-07-27T20:39:22.022Z,6.90
2018-07-27T20:41:50.309Z,6.67
2018-07-27T20:44:18.624Z,6.83
2018-07-27T20:46:46.694Z,6.40
2018-07-27T20:52:29.685Z,7.77
2018-07-27T20:54:57.982Z,6.17
2018-07-27T20:57:26.293Z,6.60
2018-07-27T20:59:54.616Z,6.83
2018-07-27T21:02:22.920Z,6.43
2018-07-27T21:04:51.188Z,7.80
2018-07-27T21:07:19.498Z,7.20
2018-07-27T21:09:47.853Z,7.50
2018-07-27T21:12:16.098Z,7.97
2018-07-27T21:14:44.393Z,7.13
2018-07-27T21:17:12.667Z,6.70
2018-07-27T21:19:41.004Z,6.93
2018-07-27T21:22:09.330Z,6.80
2018-07-27T21:24:37.705Z,7.33
2018-07-27T21:27:06.050Z,7.70
2018-07-27T21:29:34.340Z,7.10
2018-07-27T21:32:02.597Z,7.27
2018-07-27T21:34:33.844Z,7.03
2018-07-27T21:37:02.165Z,7.30
2018-07-27T21:39:30.413Z,6.97
2018-07-27T21:41:58.680Z,6.60
2018-07-27T21:44:27.001Z,7.00
2018-07-27T21:46:55.404Z,6.80
2018-07-27T21:49:23.437Z,6.27
2018-07-27T21:51:51.813Z,8.20
2018-07-27T21:54:20.176Z,8.87
2018-07-27T21:56:48.506Z,7.80
2018-07-27T21:59:16.498Z,8.00
2018-07-27T22:01:44.953Z,7.23
2018-07-27T22:04:13.274Z,7.40
2018-07-27T22:06:41.571Z,7.40
2018-07-27T22:09:10.437Z,7.47
2018-07-27T22:11:38.817Z,7.57
2018-07-27T22:14:07.118Z,8.40
2018-07-27T22:16:35.401Z,8.73
2018-07-27T22:19:03.721Z,7.50
2018-07-27T22:21:31.794Z,8.53
2018-07-27T22:23:59.797Z,8.80
2018-07-27T22:26:28.124Z,7.27
2018-07-27T22:28:56.420Z,8.00
2018-07-27T22:31:24.716Z,8.90
2018-07-27T22:33:52.905Z,7.73
2018-07-27T22:36:21.142Z,7.47
2018-07-27T22:38:49.109Z,7.40
2018-07-27T22:41:17.289Z,7.77
2018-07-27T22:43:45.201Z,7.53
2018-07-27T22:46:13.456Z,7.63
2018-07-27T22:48:41.609Z,6.90
2018-07-27T22:51:09.764Z,7.23
2018-07-27T22:53:37.913Z,8.00
2018-07-27T22:56:06.073Z,8.20
2018-07-27T22:58:34.228Z,9.40
2018-07-27T23:01:02.381Z,10.37
2018-07-27T23:03:30.541Z,10.87
2018-07-27T23:05:58.440Z,7.70
2018-07-27T23:08:26.583Z,8.20
2018-07-27T23:10:54.515Z,6.90
2018-07-27T23:13:22.653Z,6.77
2018-07-27T23:15:50.801Z,6.40
2018-07-27T23:18:18.730Z,6.60
2018-07-27T23:20:46.868Z,6.40
2018-07-27T23:23:15.018Z,6.67
2018-07-27T23:25:42.977Z,5.67
2018-07-27T23:28:11.195Z,6.17
2018-07-27T23:30:39.437Z,7.37
2018-07-27T23:33:07.395Z,7.47
2018-07-27T23:35:36.397Z,6.70
2018-07-27T23:38:04.592Z,7.17
2018-07-27T23:40:32.820Z,7.60
2018-07-27T23:43:01.021Z,6.67
2018-07-27T23:45:29.010Z,9.63
2018-07-27T23:47:57.172Z,7.07
2018-07-27T23:50:25.336Z,7.70
2018-07-27T23:52:54.679Z,7.07
2018-07-27T23:55:22.917Z,7.50
2018-07-27T23:57:51.109Z,7.23
